sensor_id;sensor_type;location;lat;lon;timestamp;P1;durP1;ratioP1;P2;durP2;ratioP2
22622;SDS011;11478;51.094;7.030;2022-12-11T00:01:23;100.78;;;38.58;;
22622;SDS011;11478;51.094;7.030;2022-12-11T00:03:49;122.63;;;51.58;;
22622;SDS011;11478;51.094;7.030;2022-12-11T00:06:19;104.00;;;37.92;;
22622;SDS011;11478;51.094;7.030;2022-12-11T00:08:46;99.70;;;38.05;;
22622;SDS011;11478;51.094;7.030;2022-12-11T00:13:42;91.25;;;34.97;;
22622;SDS011;11478;51.094;7.030;2022-12-11T00:16:09;105.15;;;35.95;;
22622;SDS011;11478;51.094;7.030;2022-12-11T00:18:35;106.63;;;36.17;;
22622;SDS011;11478;51.094;7.030;2022-12-11T00:21:03;100.82;;;35.72;;
22622;SDS011;11478;51.094;7.030;2022-12-11T00:23:33;104.47;;;36.53;;
22622;SDS011;11478;51.094;7.030;2022-12-11T00:26:07;112.53;;;38.42;;
22622;SDS011;11478;51.094;7.030;2022-12-11T00:28:36;109.68;;;36.65;;
22622;SDS011;11478;51.094;7.030;2022-12-11T00:31:08;114.55;;;37.97;;
22622;SDS011;11478;51.094;7.030;2022-12-11T00:33:38;119.95;;;38.08;;
22622;SDS011;11478;51.094;7.030;2022-12-11T00:36:15;118.60;;;38.95;;
22622;SDS011;11478;51.094;7.030;2022-12-11T00:38:43;127.50;;;39.83;;
22622;SDS011;11478;51.094;7.030;2022-12-11T00:41:10;130.68;;;40.17;;
22622;SDS011;11478;51.094;7.030;2022-12-11T00:43:36;137.18;;;42.42;;
22622;SDS011;11478;51.094;7.030;2022-12-11T00:46:08;137.77;;;43.60;;
22622;SDS011;11478;51.094;7.030;2022-12-11T00:48:35;132.43;;;43.25;;
22622;SDS011;11478;51.094;7.030;2022-12-11T00:51:00;139.10;;;43.38;;
22622;SDS011;11478;51.094;7.030;2022-12-11T00:53:26;135.25;;;41.60;;
22622;SDS011;11478;51.094;7.030;2022-12-11T00:55:53;134.32;;;42.83;;
22622;SDS011;11478;51.094;7.030;2022-12-11T00:58:19;132.77;;;42.60;;
22622;SDS011;11478;51.094;7.030;2022-12-11T01:00:49;137.52;;;43.78;;
22622;SDS011;11478;51.094;7.030;2022-12-11T01:03:17;137.05;;;41.22;;
22622;SDS011;11478;51.094;7.030;2022-12-11T01:05:53;117.90;;;39.15;;
22622;SDS011;11478;51.094;7.030;2022-12-11T01:08:19;124.63;;;38.72;;
22622;SDS011;11478;51.094;7.030;2022-12-11T01:10:49;124.72;;;41.40;;
22622;SDS011;11478;51.094;7.030;2022-12-11T01:13:15;128.38;;;40.45;;
22622;SDS011;11478;51.094;7.030;2022-12-11T01:15:47;121.25;;;40.53;;
22622;SDS011;11478;51.094;7.030;2022-12-11T01:18:13;118.95;;;39.72;;
22622;SDS011;11478;51.094;7.030;2022-12-11T01:20:40;116.57;;;39.28;;
22622;SDS011;11478;51.094;7.030;2022-12-11T01:23:06;131.23;;;42.80;;
22622;SDS011;11478;51.094;7.030;2022-12-11T01:25:35;127.22;;;42.80;;
22622;SDS011;11478;51.094;7.030;2022-12-11T01:28:02;130.10;;;43.00;;
22622;SDS011;11478;51.094;7.030;2022-12-11T01:30:28;116.35;;;40.00;;
22622;SDS011;11478;51.094;7.030;2022-12-11T01:32:56;129.00;;;42.13;;
22622;SDS011;11478;51.094;7.030;2022-12-11T01:35:22;136.75;;;44.55;;
22622;SDS011;11478;51.094;7.030;2022-12-11T01:37:48;127.72;;;43.53;;
22622;SDS011;11478;51.094;7.030;2022-12-11T01:40:15;136.65;;;43.33;;
22622;SDS011;11478;51.094;7.030;2022-12-11T01:42:42;123.07;;;42.25;;
22622;SDS011;11478;51.094;7.030;2022-12-11T01:45:15;134.77;;;44.42;;
22622;SDS011;11478;51.094;7.030;2022-12-11T01:48:36;141.07;;;45.33;;
22622;SDS011;11478;51.094;7.030;2022-12-11T01:51:02;123.10;;;43.42;;
22622;SDS011;11478;51.094;7.030;2022-12-11T01:53:30;137.57;;;45.08;;
22622;SDS011;11478;51.094;7.030;2022-12-11T01:56:00;121.57;;;41.50;;
22622;SDS011;11478;51.094;7.030;2022-12-11T01:58:33;119.22;;;42.63;;
22622;SDS011;11478;51.094;7.030;2022-12-11T02:01:04;130.70;;;42.70;;
22622;SDS011;11478;51.094;7.030;2022-12-11T02:03:36;131.40;;;44.00;;
22622;SDS011;11478;51.094;7.030;2022-12-11T02:06:02;126.93;;;42.42;;
22622;SDS011;11478;51.094;7.030;2022-12-11T02:08:35;131.98;;;44.38;;
22622;SDS011;11478;51.094;7.030;2022-12-11T02:11:04;131.07;;;43.40;;
22622;SDS011;11478;51.094;7.030;2022-12-11T02:13:55;139.80;;;44.15;;
22622;SDS011;11478;51.094;7.030;2022-12-11T02:31:04;141.07;;;43.05;;
22622;SDS011;11478;51.094;7.030;2022-12-11T02:36:34;143.57;;;44.03;;
22622;SDS011;11478;51.094;7.030;2022-12-11T02:39:15;132.07;;;42.90;;
22622;SDS011;11478;51.094;7.030;2022-12-11T02:41:43;152.88;;;45.72;;
22622;SDS011;11478;51.094;7.030;2022-12-11T02:44:16;142.65;;;43.75;;
22622;SDS011;11478;51.094;7.030;2022-12-11T02:46:46;129.80;;;42.80;;
22622;SDS011;11478;51.094;7.030;2022-12-11T02:49:14;128.80;;;41.53;;
22622;SDS011;11478;51.094;7.030;2022-12-11T02:51:41;140.70;;;45.50;;
22622;SDS011;11478;51.094;7.030;2022-12-11T02:54:27;134.85;;;43.58;;
22622;SDS011;11478;51.094;7.030;2022-12-11T02:56:57;139.32;;;43.92;;
22622;SDS011;11478;51.094;7.030;2022-12-11T02:59:38;145.30;;;42.67;;
22622;SDS011;11478;51.094;7.030;2022-12-11T03:02:05;141.80;;;43.42;;
22622;SDS011;11478;51.094;7.030;2022-12-11T03:04:32;144.05;;;43.70;;
22622;SDS011;11478;51.094;7.030;2022-12-11T03:09:41;167.98;;;47.47;;
22622;SDS011;11478;51.094;7.030;2022-12-11T03:12:09;167.00;;;47.30;;
22622;SDS011;11478;51.094;7.030;2022-12-11T03:14:38;160.20;;;47.20;;
22622;SDS011;11478;51.094;7.030;2022-12-11T03:17:14;167.60;;;49.97;;
22622;SDS011;11478;51.094;7.030;2022-12-11T03:19:41;169.98;;;52.35;;
22622;SDS011;11478;51.094;7.030;2022-12-11T03:25:38;144.90;;;46.40;;
22622;SDS011;11478;51.094;7.030;2022-12-11T03:28:19;138.38;;;45.65;;
22622;SDS011;11478;51.094;7.030;2022-12-11T03:31:07;130.15;;;42.10;;
22622;SDS011;11478;51.094;7.030;2022-12-11T03:33:36;123.68;;;41.22;;
22622;SDS011;11478;51.094;7.030;2022-12-11T03:36:26;124.43;;;42.38;;
22622;SDS011;11478;51.094;7.030;2022-12-11T03:39:00;115.78;;;40.45;;
22622;SDS011;11478;51.094;7.030;2022-12-11T03:41:35;130.15;;;43.38;;
22622;SDS011;11478;51.094;7.030;2022-12-11T03:44:03;114.65;;;40.08;;
22622;SDS011;11478;51.094;7.030;2022-12-11T03:46:32;109.75;;;40.13;;
22622;SDS011;11478;51.094;7.030;2022-12-11T03:49:04;112.43;;;40.88;;
22622;SDS011;11478;51.094;7.030;2022-12-11T03:51:55;107.50;;;38.78;;
22622;SDS011;11478;51.094;7.030;2022-12-11T03:54:30;97.90;;;36.67;;
22622;SDS011;11478;51.094;7.030;2022-12-11T03:56:57;119.90;;;40.10;;
22622;SDS011;11478;51.094;7.030;2022-12-11T03:59:26;107.80;;;39.45;;
22622;SDS011;11478;51.094;7.030;2022-12-11T04:01:52;106.63;;;38.15;;
22622;SDS011;11478;51.094;7.030;2022-12-11T04:06:47;94.70;;;35.25;;
22622;SDS011;11478;51.094;7.030;2022-12-11T04:15:05;106.97;;;38.10;;
22622;SDS011;11478;51.094;7.030;2022-12-11T04:20:19;100.80;;;36.85;;
22622;SDS011;11478;51.094;7.030;2022-12-11T04:23:13;101.47;;;36.97;;
22622;SDS011;11478;51.094;7.030;2022-12-11T04:26:03;96.50;;;36.40;;
22622;SDS011;11478;51.094;7.030;2022-12-11T04:28:33;100.93;;;37.75;;
22622;SDS011;11478;51.094;7.030;2022-12-11T04:30:59;85.43;;;34.38;;
22622;SDS011;11478;51.094;7.030;2022-12-11T04:33:26;93.28;;;35.38;;
22622;SDS011;11478;51.094;7.030;2022-12-11T04:35:52;93.97;;;36.22;;
22622;SDS011;11478;51.094;7.030;2022-12-11T04:38:18;87.82;;;35.10;;
22622;SDS011;11478;51.094;7.030;2022-12-11T04:40:45;84.70;;;32.20;;
22622;SDS011;11478;51.094;7.030;2022-12-11T04:43:11;79.78;;;32.35;;
22622;SDS011;11478;51.094;7.030;2022-12-11T04:48:44;79.40;;;30.33;;
22622;SDS011;11478;51.094;7.030;2022-12-11T04:51:21;91.80;;;33.70;;
22622;SDS011;11478;51.094;7.030;2022-12-11T04:53:47;84.57;;;32.97;;
22622;SDS011;11478;51.094;7.030;2022-12-11T04:56:13;87.93;;;34.47;;
22622;SDS011;11478;51.094;7.030;2022-12-11T04:58:41;82.57;;;33.13;;
22622;SDS011;11478;51.094;7.030;2022-12-11T05:01:15;91.80;;;34.20;;
22622;SDS011;11478;51.094;7.030;2022-12-11T05:03:43;89.95;;;33.50;;
22622;SDS011;11478;51.094;7.030;2022-12-11T05:06:11;100.35;;;35.85;;
22622;SDS011;11478;51.094;7.030;2022-12-11T05:08:38;97.95;;;36.00;;
22622;SDS011;11478;51.094;7.030;2022-12-11T05:11:07;92.13;;;36.35;;
22622;SDS011;11478;51.094;7.030;2022-12-11T05:13:35;93.63;;;34.88;;
22622;SDS011;11478;51.094;7.030;2022-12-11T05:16:03;93.82;;;35.72;;
22622;SDS011;11478;51.094;7.030;2022-12-11T05:18:29;98.13;;;36.22;;
22622;SDS011;11478;51.094;7.030;2022-12-11T05:21:09;97.60;;;35.50;;
22622;SDS011;11478;51.094;7.030;2022-12-11T05:23:36;90.88;;;35.38;;
22622;SDS011;11478;51.094;7.030;2022-12-11T05:26:05;87.32;;;33.83;;
22622;SDS011;11478;51.094;7.030;2022-12-11T05:28:35;89.28;;;34.92;;
22622;SDS011;11478;51.094;7.030;2022-12-11T05:31:13;84.00;;;33.40;;
22622;SDS011;11478;51.094;7.030;2022-12-11T05:33:42;97.85;;;36.63;;
22622;SDS011;11478;51.094;7.030;2022-12-11T05:36:12;85.00;;;33.78;;
22622;SDS011;11478;51.094;7.030;2022-12-11T05:38:42;89.70;;;33.95;;
22622;SDS011;11478;51.094;7.030;2022-12-11T05:41:09;77.10;;;31.80;;
22622;SDS011;11478;51.094;7.030;2022-12-11T05:43:41;70.53;;;30.23;;
22622;SDS011;11478;51.094;7.030;2022-12-11T05:46:08;78.13;;;31.15;;
22622;SDS011;11478;51.094;7.030;2022-12-11T05:48:36;72.28;;;31.90;;
22622;SDS011;11478;51.094;7.030;2022-12-11T05:51:04;78.32;;;31.52;;
22622;SDS011;11478;51.094;7.030;2022-12-11T05:53:30;78.47;;;31.42;;
22622;SDS011;11478;51.094;7.030;2022-12-11T05:56:00;78.47;;;31.75;;
22622;SDS011;11478;51.094;7.030;2022-12-11T05:58:32;76.45;;;32.10;;
22622;SDS011;11478;51.094;7.030;2022-12-11T06:00:59;70.60;;;29.40;;
22622;SDS011;11478;51.094;7.030;2022-12-11T06:03:25;76.68;;;32.22;;
22622;SDS011;11478;51.094;7.030;2022-12-11T06:05:51;75.22;;;32.50;;
22622;SDS011;11478;51.094;7.030;2022-12-11T06:08:18;76.72;;;31.50;;
22622;SDS011;11478;51.094;7.030;2022-12-11T06:10:45;77.60;;;32.65;;
22622;SDS011;11478;51.094;7.030;2022-12-11T06:15:42;79.15;;;30.75;;
22622;SDS011;11478;51.094;7.030;2022-12-11T06:20:37;73.65;;;31.98;;
22622;SDS011;11478;51.094;7.030;2022-12-11T06:23:20;76.75;;;33.03;;
22622;SDS011;11478;51.094;7.030;2022-12-11T06:25:46;95.07;;;36.00;;
22622;SDS011;11478;51.094;7.030;2022-12-11T06:28:12;91.47;;;34.72;;
22622;SDS011;11478;51.094;7.030;2022-12-11T06:30:38;85.03;;;34.42;;
22622;SDS011;11478;51.094;7.030;2022-12-11T06:33:06;89.85;;;35.20;;
22622;SDS011;11478;51.094;7.030;2022-12-11T06:35:36;84.40;;;34.38;;
22622;SDS011;11478;51.094;7.030;2022-12-11T06:38:02;92.88;;;35.78;;
22622;SDS011;11478;51.094;7.030;2022-12-11T06:40:34;91.32;;;35.88;;
22622;SDS011;11478;51.094;7.030;2022-12-11T06:43:01;91.72;;;37.17;;
22622;SDS011;11478;51.094;7.030;2022-12-11T06:48:13;82.88;;;33.53;;
22622;SDS011;11478;51.094;7.030;2022-12-11T06:50:39;81.07;;;32.28;;
22622;SDS011;11478;51.094;7.030;2022-12-11T06:53:04;82.18;;;33.42;;
22622;SDS011;11478;51.094;7.030;2022-12-11T06:55:37;87.90;;;33.33;;
22622;SDS011;11478;51.094;7.030;2022-12-11T06:58:03;83.60;;;32.60;;
22622;SDS011;11478;51.094;7.030;2022-12-11T07:00:35;76.30;;;32.75;;
22622;SDS011;11478;51.094;7.030;2022-12-11T07:03:02;80.95;;;33.97;;
22622;SDS011;11478;51.094;7.030;2022-12-11T07:05:31;81.45;;;33.35;;
22622;SDS011;11478;51.094;7.030;2022-12-11T07:07:57;75.45;;;31.90;;
22622;SDS011;11478;51.094;7.030;2022-12-11T07:10:23;74.25;;;32.03;;
22622;SDS011;11478;51.094;7.030;2022-12-11T07:12:53;72.93;;;31.30;;
22622;SDS011;11478;51.094;7.030;2022-12-11T07:15:21;67.63;;;31.00;;
22622;SDS011;11478;51.094;7.030;2022-12-11T07:17:47;66.93;;;30.20;;
22622;SDS011;11478;51.094;7.030;2022-12-11T07:20:13;65.10;;;30.35;;
22622;SDS011;11478;51.094;7.030;2022-12-11T07:22:39;67.10;;;29.77;;
22622;SDS011;11478;51.094;7.030;2022-12-11T07:27:35;62.83;;;30.05;;
22622;SDS011;11478;51.094;7.030;2022-12-11T07:30:01;55.97;;;28.08;;
22622;SDS011;11478;51.094;7.030;2022-12-11T07:32:28;57.00;;;27.60;;
22622;SDS011;11478;51.094;7.030;2022-12-11T07:34:53;60.28;;;28.52;;
22622;SDS011;11478;51.094;7.030;2022-12-11T07:37:27;53.30;;;27.33;;
22622;SDS011;11478;51.094;7.030;2022-12-11T07:42:19;54.22;;;25.83;;
22622;SDS011;11478;51.094;7.030;2022-12-11T07:44:45;50.85;;;25.05;;
22622;SDS011;11478;51.094;7.030;2022-12-11T07:47:10;54.95;;;25.73;;
22622;SDS011;11478;51.094;7.030;2022-12-11T07:49:36;53.67;;;25.55;;
22622;SDS011;11478;51.094;7.030;2022-12-11T07:52:02;58.03;;;28.17;;
22622;SDS011;11478;51.094;7.030;2022-12-11T07:54:28;53.70;;;25.88;;
22622;SDS011;11478;51.094;7.030;2022-12-11T07:56:57;55.45;;;27.40;;
22622;SDS011;11478;51.094;7.030;2022-12-11T07:59:22;49.90;;;24.83;;
22622;SDS011;11478;51.094;7.030;2022-12-11T08:01:50;55.22;;;26.30;;
22622;SDS011;11478;51.094;7.030;2022-12-11T08:04:16;52.15;;;27.60;;
22622;SDS011;11478;51.094;7.030;2022-12-11T08:06:48;53.13;;;26.73;;
22622;SDS011;11478;51.094;7.030;2022-12-11T08:09:14;52.90;;;27.02;;
22622;SDS011;11478;51.094;7.030;2022-12-11T08:11:40;56.05;;;26.85;;
22622;SDS011;11478;51.094;7.030;2022-12-11T08:14:05;53.45;;;26.88;;
22622;SDS011;11478;51.094;7.030;2022-12-11T08:16:34;52.92;;;25.92;;
22622;SDS011;11478;51.094;7.030;2022-12-11T08:19:00;50.58;;;25.23;;
22622;SDS011;11478;51.094;7.030;2022-12-11T08:24:12;57.13;;;27.90;;
22622;SDS011;11478;51.094;7.030;2022-12-11T08:26:40;54.55;;;27.92;;
22622;SDS011;11478;51.094;7.030;2022-12-11T08:29:06;56.17;;;26.55;;
22622;SDS011;11478;51.094;7.030;2022-12-11T08:31:38;60.05;;;29.60;;
22622;SDS011;11478;51.094;7.030;2022-12-11T08:34:04;59.00;;;30.17;;
22622;SDS011;11478;51.094;7.030;2022-12-11T08:36:34;71.97;;;34.08;;
22622;SDS011;11478;51.094;7.030;2022-12-11T08:39:00;68.80;;;32.97;;
22622;SDS011;11478;51.094;7.030;2022-12-11T08:41:27;61.03;;;29.45;;
22622;SDS011;11478;51.094;7.030;2022-12-11T08:43:54;59.00;;;28.52;;
22622;SDS011;11478;51.094;7.030;2022-12-11T08:46:22;62.65;;;29.83;;
22622;SDS011;11478;51.094;7.030;2022-12-11T08:48:50;60.45;;;29.20;;
22622;SDS011;11478;51.094;7.030;2022-12-11T08:51:18;59.47;;;28.67;;
22622;SDS011;11478;51.094;7.030;2022-12-11T08:53:46;64.28;;;29.70;;
22622;SDS011;11478;51.094;7.030;2022-12-11T08:56:14;54.05;;;28.23;;
22622;SDS011;11478;51.094;7.030;2022-12-11T08:58:42;53.38;;;27.30;;
22622;SDS011;11478;51.094;7.030;2022-12-11T09:01:23;62.78;;;31.30;;
22622;SDS011;11478;51.094;7.030;2022-12-11T09:03:50;63.22;;;30.40;;
22622;SDS011;11478;51.094;7.030;2022-12-11T09:08:50;62.28;;;30.95;;
22622;SDS011;11478;51.094;7.030;2022-12-11T09:13:50;62.53;;;31.88;;
22622;SDS011;11478;51.094;7.030;2022-12-11T09:16:18;62.17;;;30.40;;
22622;SDS011;11478;51.094;7.030;2022-12-11T09:18:46;63.97;;;29.92;;
22622;SDS011;11478;51.094;7.030;2022-12-11T09:21:16;54.80;;;29.02;;
22622;SDS011;11478;51.094;7.030;2022-12-11T09:23:48;52.75;;;26.88;;
22622;SDS011;11478;51.094;7.030;2022-12-11T09:26:21;56.10;;;28.00;;
22622;SDS011;11478;51.094;7.030;2022-12-11T09:28:48;59.97;;;29.02;;
22622;SDS011;11478;51.094;7.030;2022-12-11T09:31:27;64.57;;;32.10;;
22622;SDS011;11478;51.094;7.030;2022-12-11T09:33:55;63.97;;;31.58;;
22622;SDS011;11478;51.094;7.030;2022-12-11T09:36:22;61.25;;;29.50;;
22622;SDS011;11478;51.094;7.030;2022-12-11T09:38:49;58.13;;;29.70;;
22622;SDS011;11478;51.094;7.030;2022-12-11T09:47:01;61.92;;;30.63;;
22622;SDS011;11478;51.094;7.030;2022-12-11T09:52:09;60.88;;;30.77;;
22622;SDS011;11478;51.094;7.030;2022-12-11T09:54:43;61.80;;;29.73;;
22622;SDS011;11478;51.094;7.030;2022-12-11T10:00:00;60.95;;;30.52;;
22622;SDS011;11478;51.094;7.030;2022-12-11T10:02:49;64.28;;;29.80;;
22622;SDS011;11478;51.094;7.030;2022-12-11T10:05:46;57.58;;;28.38;;
22622;SDS011;11478;51.094;7.030;2022-12-11T10:11:18;58.75;;;29.77;;
22622;SDS011;11478;51.094;7.030;2022-12-11T10:16:51;61.28;;;29.77;;
22622;SDS011;11478;51.094;7.030;2022-12-11T10:19:23;60.17;;;28.35;;
22622;SDS011;11478;51.094;7.030;2022-12-11T10:21:53;56.60;;;30.30;;
22622;SDS011;11478;51.094;7.030;2022-12-11T10:24:36;65.97;;;31.63;;
22622;SDS011;11478;51.094;7.030;2022-12-11T10:27:14;66.13;;;31.85;;
22622;SDS011;11478;51.094;7.030;2022-12-11T10:29:51;61.95;;;29.63;;
22622;SDS011;11478;51.094;7.030;2022-12-11T10:41:38;72.22;;;32.92;;
22622;SDS011;11478;51.094;7.030;2022-12-11T10:44:19;68.88;;;31.73;;
22622;SDS011;11478;51.094;7.030;2022-12-11T10:46:47;77.22;;;34.03;;
22622;SDS011;11478;51.094;7.030;2022-12-11T10:49:30;76.15;;;33.05;;
22622;SDS011;11478;51.094;7.030;2022-12-11T10:51:58;78.63;;;33.97;;
22622;SDS011;11478;51.094;7.030;2022-12-11T10:54:35;71.03;;;33.70;;
22622;SDS011;11478;51.094;7.030;2022-12-11T10:57:07;75.43;;;33.67;;
22622;SDS011;11478;51.094;7.030;2022-12-11T11:02:53;73.20;;;34.42;;
22622;SDS011;11478;51.094;7.030;2022-12-11T11:05:26;92.85;;;41.35;;
22622;SDS011;11478;51.094;7.030;2022-12-11T11:13:43;72.03;;;34.53;;
22622;SDS011;11478;51.094;7.030;2022-12-11T11:16:11;70.35;;;34.00;;
22622;SDS011;11478;51.094;7.030;2022-12-11T11:18:39;83.20;;;37.65;;
22622;SDS011;11478;51.094;7.030;2022-12-11T11:23:48;76.82;;;36.28;;
22622;SDS011;11478;51.094;7.030;2022-12-11T11:26:16;83.68;;;38.05;;
22622;SDS011;11478;51.094;7.030;2022-12-11T11:28:47;79.82;;;38.00;;
22622;SDS011;11478;51.094;7.030;2022-12-11T11:31:31;85.03;;;36.20;;
22622;SDS011;11478;51.094;7.030;2022-12-11T11:34:03;74.28;;;34.25;;
22622;SDS011;11478;51.094;7.030;2022-12-11T11:36:37;73.03;;;33.30;;
22622;SDS011;11478;51.094;7.030;2022-12-11T11:41:55;83.32;;;37.33;;
22622;SDS011;11478;51.094;7.030;2022-12-11T11:44:28;80.20;;;37.83;;
22622;SDS011;11478;51.094;7.030;2022-12-11T11:47:05;123.15;;;55.47;;
22622;SDS011;11478;51.094;7.030;2022-12-11T11:52:16;75.68;;;37.20;;
22622;SDS011;11478;51.094;7.030;2022-12-11T11:55:06;76.93;;;35.08;;
22622;SDS011;11478;51.094;7.030;2022-12-11T11:58:02;76.72;;;34.38;;
22622;SDS011;11478;51.094;7.030;2022-12-11T12:00:43;75.50;;;33.78;;
22622;SDS011;11478;51.094;7.030;2022-12-11T12:08:29;79.05;;;34.88;;
22622;SDS011;11478;51.094;7.030;2022-12-11T12:11:01;76.38;;;35.67;;
22622;SDS011;11478;51.094;7.030;2022-12-11T12:13:50;83.18;;;35.97;;
22622;SDS011;11478;51.094;7.030;2022-12-11T12:16:33;79.35;;;36.08;;
22622;SDS011;11478;51.094;7.030;2022-12-11T12:21:53;81.18;;;34.95;;
22622;SDS011;11478;51.094;7.030;2022-12-11T12:24:33;81.63;;;34.60;;
22622;SDS011;11478;51.094;7.030;2022-12-11T12:29:45;77.65;;;34.90;;
22622;SDS011;11478;51.094;7.030;2022-12-11T12:32:22;79.40;;;34.88;;
22622;SDS011;11478;51.094;7.030;2022-12-11T12:35:36;81.30;;;34.30;;
22622;SDS011;11478;51.094;7.030;2022-12-11T12:38:29;83.03;;;35.47;;
22622;SDS011;11478;51.094;7.030;2022-12-11T12:41:29;87.28;;;35.65;;
22622;SDS011;11478;51.094;7.030;2022-12-11T12:44:21;84.53;;;35.83;;
22622;SDS011;11478;51.094;7.030;2022-12-11T12:49:31;78.97;;;33.67;;
22622;SDS011;11478;51.094;7.030;2022-12-11T12:51:59;80.95;;;33.95;;
22622;SDS011;11478;51.094;7.030;2022-12-11T12:54:26;80.30;;;33.33;;
22622;SDS011;11478;51.094;7.030;2022-12-11T12:56:54;72.47;;;31.67;;
22622;SDS011;11478;51.094;7.030;2022-12-11T12:59:26;71.85;;;30.45;;
22622;SDS011;11478;51.094;7.030;2022-12-11T13:01:54;65.70;;;28.40;;
22622;SDS011;11478;51.094;7.030;2022-12-11T13:04:42;66.15;;;28.35;;
22622;SDS011;11478;51.094;7.030;2022-12-11T13:07:21;70.03;;;30.38;;
22622;SDS011;11478;51.094;7.030;2022-12-11T13:10:07;68.70;;;29.52;;
22622;SDS011;11478;51.094;7.030;2022-12-11T13:12:49;64.07;;;28.38;;
22622;SDS011;11478;51.094;7.030;2022-12-11T13:15:23;67.68;;;30.73;;
22622;SDS011;11478;51.094;7.030;2022-12-11T13:20:56;59.05;;;27.83;;
22622;SDS011;11478;51.094;7.030;2022-12-11T13:23:32;61.88;;;28.02;;
22622;SDS011;11478;51.094;7.030;2022-12-11T13:28:44;56.97;;;27.35;;
22622;SDS011;11478;51.094;7.030;2022-12-11T13:33:56;60.33;;;27.95;;
22622;SDS011;11478;51.094;7.030;2022-12-11T13:36:28;63.00;;;28.35;;
22622;SDS011;11478;51.094;7.030;2022-12-11T13:39:33;67.82;;;28.35;;
22622;SDS011;11478;51.094;7.030;2022-12-11T13:44:47;59.50;;;27.77;;
22622;SDS011;11478;51.094;7.030;2022-12-11T13:47:17;56.70;;;25.27;;
22622;SDS011;11478;51.094;7.030;2022-12-11T13:49:45;54.63;;;25.83;;
22622;SDS011;11478;51.094;7.030;2022-12-11T13:52:19;61.80;;;26.98;;
22622;SDS011;11478;51.094;7.030;2022-12-11T13:54:47;54.13;;;26.25;;
22622;SDS011;11478;51.094;7.030;2022-12-11T13:57:18;59.25;;;30.23;;
22622;SDS011;11478;51.094;7.030;2022-12-11T13:59:53;48.63;;;22.45;;
22622;SDS011;11478;51.094;7.030;2022-12-11T14:05:03;44.00;;;20.50;;
22622;SDS011;11478;51.094;7.030;2022-12-11T14:07:35;45.25;;;22.27;;
22622;SDS011;11478;51.094;7.030;2022-12-11T14:10:07;46.05;;;21.23;;
22622;SDS011;11478;51.094;7.030;2022-12-11T14:12:42;42.72;;;21.05;;
22622;SDS011;11478;51.094;7.030;2022-12-11T14:15:30;46.30;;;22.52;;
22622;SDS011;11478;51.094;7.030;2022-12-11T14:17:59;48.80;;;24.08;;
22622;SDS011;11478;51.094;7.030;2022-12-11T14:20:26;47.92;;;23.13;;
22622;SDS011;11478;51.094;7.030;2022-12-11T14:23:16;49.35;;;23.58;;
22622;SDS011;11478;51.094;7.030;2022-12-11T14:28:20;40.28;;;20.23;;
22622;SDS011;11478;51.094;7.030;2022-12-11T14:30:51;44.72;;;21.17;;
22622;SDS011;11478;51.094;7.030;2022-12-11T14:33:31;54.70;;;26.30;;
22622;SDS011;11478;51.094;7.030;2022-12-11T14:36:01;45.38;;;22.15;;
22622;SDS011;11478;51.094;7.030;2022-12-11T14:38:37;45.60;;;21.77;;
22622;SDS011;11478;51.094;7.030;2022-12-11T14:41:12;43.08;;;19.95;;
22622;SDS011;11478;51.094;7.030;2022-12-11T14:43:45;43.30;;;21.08;;
22622;SDS011;11478;51.094;7.030;2022-12-11T14:46:16;43.45;;;19.98;;
22622;SDS011;11478;51.094;7.030;2022-12-11T14:48:51;42.67;;;19.70;;
22622;SDS011;11478;51.094;7.030;2022-12-11T14:51:24;44.33;;;20.10;;
22622;SDS011;11478;51.094;7.030;2022-12-11T14:53:55;43.05;;;20.05;;
22622;SDS011;11478;51.094;7.030;2022-12-11T14:56:23;42.63;;;20.88;;
22622;SDS011;11478;51.094;7.030;2022-12-11T14:58:56;39.88;;;19.95;;
22622;SDS011;11478;51.094;7.030;2022-12-11T15:01:32;42.97;;;20.40;;
22622;SDS011;11478;51.094;7.030;2022-12-11T15:06:52;42.50;;;19.30;;
22622;SDS011;11478;51.094;7.030;2022-12-11T15:12:11;43.90;;;20.25;;
22622;SDS011;11478;51.094;7.030;2022-12-11T15:14:46;41.03;;;20.23;;
22622;SDS011;11478;51.094;7.030;2022-12-11T15:17:18;47.00;;;21.90;;
22622;SDS011;11478;51.094;7.030;2022-12-11T15:19:49;45.15;;;21.73;;
22622;SDS011;11478;51.094;7.030;2022-12-11T15:22:18;47.00;;;21.98;;
22622;SDS011;11478;51.094;7.030;2022-12-11T15:24:58;47.88;;;23.10;;
22622;SDS011;11478;51.094;7.030;2022-12-11T15:27:29;46.90;;;20.92;;
22622;SDS011;11478;51.094;7.030;2022-12-11T15:32:42;49.95;;;21.90;;
22622;SDS011;11478;51.094;7.030;2022-12-11T15:35:21;48.00;;;22.90;;
22622;SDS011;11478;51.094;7.030;2022-12-11T15:37:56;46.60;;;21.48;;
22622;SDS011;11478;51.094;7.030;2022-12-11T15:42:52;43.90;;;20.63;;
22622;SDS011;11478;51.094;7.030;2022-12-11T15:47:50;45.78;;;22.45;;
22622;SDS011;11478;51.094;7.030;2022-12-11T15:50:23;49.45;;;21.27;;
22622;SDS011;11478;51.094;7.030;2022-12-11T15:52:50;50.67;;;22.30;;
22622;SDS011;11478;51.094;7.030;2022-12-11T15:55:23;45.65;;;20.75;;
22622;SDS011;11478;51.094;7.030;2022-12-11T15:57:55;47.72;;;21.88;;
22622;SDS011;11478;51.094;7.030;2022-12-11T16:00:24;47.15;;;22.48;;
22622;SDS011;11478;51.094;7.030;2022-12-11T16:02:52;51.53;;;22.58;;
22622;SDS011;11478;51.094;7.030;2022-12-11T16:07:47;60.33;;;25.15;;
22622;SDS011;11478;51.094;7.030;2022-12-11T16:10:17;57.05;;;24.30;;
22622;SDS011;11478;51.094;7.030;2022-12-11T16:12:44;59.03;;;25.30;;
22622;SDS011;11478;51.094;7.030;2022-12-11T16:18:24;48.80;;;22.23;;
22622;SDS011;11478;51.094;7.030;2022-12-11T16:20:51;45.58;;;22.00;;
22622;SDS011;11478;51.094;7.030;2022-12-11T16:23:17;53.45;;;23.08;;
22622;SDS011;11478;51.094;7.030;2022-12-11T16:25:47;56.88;;;24.40;;
22622;SDS011;11478;51.094;7.030;2022-12-11T16:28:14;54.47;;;23.38;;
22622;SDS011;11478;51.094;7.030;2022-12-11T16:30:43;54.60;;;23.42;;
22622;SDS011;11478;51.094;7.030;2022-12-11T16:33:09;54.22;;;23.45;;
22622;SDS011;11478;51.094;7.030;2022-12-11T16:38:06;52.05;;;23.55;;
22622;SDS011;11478;51.094;7.030;2022-12-11T16:40:39;52.83;;;22.90;;
22622;SDS011;11478;51.094;7.030;2022-12-11T16:43:05;53.63;;;24.27;;
22622;SDS011;11478;51.094;7.030;2022-12-11T16:45:32;57.58;;;24.23;;
22622;SDS011;11478;51.094;7.030;2022-12-11T16:48:00;60.78;;;25.60;;
22622;SDS011;11478;51.094;7.030;2022-12-11T16:50:28;55.15;;;23.83;;
22622;SDS011;11478;51.094;7.030;2022-12-11T16:53:07;56.97;;;23.55;;
22622;SDS011;11478;51.094;7.030;2022-12-11T16:55:32;50.85;;;23.38;;
22622;SDS011;11478;51.094;7.030;2022-12-11T16:57:58;56.00;;;23.75;;
22622;SDS011;11478;51.094;7.030;2022-12-11T17:00:24;58.53;;;25.60;;
22622;SDS011;11478;51.094;7.030;2022-12-11T17:02:50;53.17;;;25.00;;
22622;SDS011;11478;51.094;7.030;2022-12-11T17:05:16;56.10;;;25.05;;
22622;SDS011;11478;51.094;7.030;2022-12-11T17:07:43;56.53;;;23.15;;
22622;SDS011;11478;51.094;7.030;2022-12-11T17:10:08;51.58;;;23.33;;
22622;SDS011;11478;51.094;7.030;2022-12-11T17:12:34;54.45;;;24.02;;
22622;SDS011;11478;51.094;7.030;2022-12-11T17:15:00;52.80;;;24.00;;
22622;SDS011;11478;51.094;7.030;2022-12-11T17:17:26;52.65;;;24.02;;